createdAt,value
2022-08-12T00:02:19.819Z,10.1
2022-08-12T00:16:41.889Z,10.2
2022-08-12T00:31:08.801Z,10
2022-08-12T00:45:36.545Z,9.9
2022-08-12T01:00:05.080Z,10
2022-08-12T01:14:39.141Z,9.8
2022-08-12T01:29:08.144Z,10
2022-08-12T01:43:31.891Z,9.8
2022-08-12T01:58:02.575Z,9.6
2022-08-12T02:12:34.758Z,9.9
2022-08-12T02:26:54.600Z,9.9
2022-08-12T02:41:23.222Z,10
2022-08-12T02:55:49.788Z,10
2022-08-12T03:10:41.531Z,10
2022-08-12T03:24:57.538Z,9.8
2022-08-12T03:39:37.668Z,10.1
2022-08-12T03:53:55.047Z,10.1
2022-08-12T04:08:22.639Z,9.9
2022-08-12T04:22:50.943Z,9.9
2022-08-12T04:37:19.090Z,9.8
2022-08-12T04:51:59.964Z,10.1
2022-08-12T05:06:27.498Z,10.1
2022-08-12T05:20:45.264Z,10.1
2022-08-12T05:35:12.601Z,10.2
2022-08-12T05:49:42.104Z,10.5
2022-08-12T06:04:09.717Z,11.1
2022-08-12T06:18:41.261Z,11.1
2022-08-12T06:33:55.142Z,10.8
2022-08-12T06:48:00.820Z,10.8
2022-08-12T07:02:37.583Z,10.6
2022-08-12T07:17:01.038Z,10.1
2022-08-12T07:31:36.847Z,10.3
2022-08-12T07:46:15.250Z,11
2022-08-12T08:00:48.767Z,11.2
2022-08-12T08:15:20.266Z,10.4
2022-08-12T08:29:50.881Z,9.9
2022-08-12T08:44:18.848Z,10.1
2022-08-12T08:58:55.416Z,9.9
2022-08-12T09:14:29.669Z,10.4
2022-08-12T09:28:32.352Z,9.3
2022-08-12T09:43:19.363Z,8.9
2022-08-12T09:59:03.051Z,9.4
2022-08-12T10:13:33.870Z,9.6
2022-08-12T10:28:25.298Z,9.4
2022-08-12T10:42:46.915Z,9.2
2022-08-12T10:58:32.120Z,8.3
2022-08-12T11:13:03.399Z,8
2022-08-12T11:27:19.021Z,9
2022-08-12T11:41:51.396Z,8.5
2022-08-12T11:56:19.737Z,8.5
2022-08-12T12:10:43.248Z,8.8
2022-08-12T12:25:14.802Z,8.5
2022-08-12T12:39:58.447Z,8.8
2022-08-12T12:54:12.013Z,8
2022-08-12T13:08:39.124Z,8.7
2022-08-12T13:23:44.930Z,8.1
2022-08-12T13:37:56.159Z,7.7
2022-08-12T13:52:26.612Z,7.7
2022-08-12T14:06:55.464Z,7.8
2022-08-12T14:21:25.329Z,7.7
2022-08-12T14:35:52.671Z,8.8
2022-08-12T15:08:07.187Z,8.6
2022-08-12T15:22:54.470Z,7.8
2022-08-12T15:37:02.228Z,7.6
2022-08-12T15:52:05.645Z,7.9
2022-08-12T16:07:05.690Z,7.9
2022-08-12T16:21:59.537Z,8.1
2022-08-12T16:36:04.947Z,8.5
2022-08-12T16:50:32.537Z,8.5
2022-08-12T17:04:56.276Z,8.1
2022-08-12T17:20:47.415Z,8.1
2022-08-12T17:34:47.206Z,8.2
2022-08-12T17:50:04.735Z,7.7
2022-08-12T18:04:36.602Z,7.9
2022-08-12T18:18:49.436Z,8.7
2022-08-12T18:33:15.169Z,9
2022-08-12T18:47:52.360Z,8.8
2022-08-12T19:02:23.854Z,8.7
2022-08-12T19:16:47.942Z,8.2
2022-08-12T19:31:09.574Z,8.5
2022-08-12T19:45:49.223Z,8.2
2022-08-12T20:00:06.890Z,8.4
2022-08-12T20:14:28.924Z,9
2022-08-12T20:28:57.440Z,8.7
2022-08-12T20:43:32.529Z,8.5
2022-08-12T20:58:05.401Z,8.3
2022-08-12T21:12:34.915Z,8.7
2022-08-12T21:27:08.017Z,8.8
2022-08-12T21:41:24.814Z,9
2022-08-12T21:55:52.033Z,8.8
2022-08-12T22:49:09.146Z,8.5
2022-08-12T23:02:56.799Z,8.8
2022-08-12T23:17:42.371Z,8.9
2022-08-12T23:32:10.225Z,8.9
2022-08-12T23:46:27.292Z,8.9
